Umatilla, Florida
Current Conditions -  °F | °C
As of 6:07 AM on Sunday 23 Nov 2014 (Local Time) from KLEE Reporting Station
Overcast Overcast  
Wind Chill: 69°   Ceiling: 800
Heat Index: 69°   Visibility: 10mi
Dew Point: 68°   Wind: 7mph
Humidity: 96%   Direction: 160°SSE
Pressure: 30.01"   Gusts: NA
Location:  28.93°N, 81.67°W
Report Text: KLEE 231107Z AUTO 16006KT 10SM OVC008 21/20 A3001 RMK AO2 CIG 006V011 T02060200
Loading
Personal Weather Stations






























Interactive Weather Map New forecast layout! Learn more

10-Day Weather Forecast

Advertisements
Track Severe Weather on mobile